sensor_id;sensor_type;location;lat;lon;timestamp;temperature;humidity
26312;DHT22;14019;56.964;24.016;2023-02-15T00:01:12;1.30;99.90
26312;DHT22;14019;56.964;24.016;2023-02-15T00:03:59;1.30;99.90
26312;DHT22;14019;56.964;24.016;2023-02-15T00:06:45;1.30;99.90
26312;DHT22;14019;56.964;24.016;2023-02-15T00:09:31;1.30;99.90
26312;DHT22;14019;56.964;24.016;2023-02-15T00:12:17;1.30;99.90
26312;DHT22;14019;56.964;24.016;2023-02-15T00:15:04;1.20;99.90
26312;DHT22;14019;56.964;24.016;2023-02-15T00:17:50;1.30;99.90
26312;DHT22;14019;56.964;24.016;2023-02-15T00:20:37;1.20;99.90
26312;DHT22;14019;56.964;24.016;2023-02-15T00:23:26;1.30;99.90
26312;DHT22;14019;56.964;24.016;2023-02-15T00:26:14;1.30;99.90
26312;DHT22;14019;56.964;24.016;2023-02-15T00:29:02;1.30;99.90
26312;DHT22;14019;56.964;24.016;2023-02-15T00:31:49;1.30;99.90
26312;DHT22;14019;56.964;24.016;2023-02-15T00:34:35;1.30;99.90
26312;DHT22;14019;56.964;24.016;2023-02-15T00:37:21;1.30;99.90
26312;DHT22;14019;56.964;24.016;2023-02-15T00:40:07;1.30;99.90
26312;DHT22;14019;56.964;24.016;2023-02-15T00:42:54;1.30;99.90
26312;DHT22;14019;56.964;24.016;2023-02-15T00:45:41;1.30;99.90
26312;DHT22;14019;56.964;24.016;2023-02-15T00:48:27;1.30;99.90
26312;DHT22;14019;56.964;24.016;2023-02-15T00:51:14;1.30;99.90
26312;DHT22;14019;56.964;24.016;2023-02-15T00:54:00;1.30;99.90
26312;DHT22;14019;56.964;24.016;2023-02-15T00:56:48;1.30;99.90
26312;DHT22;14019;56.964;24.016;2023-02-15T00:59:35;1.30;99.90
26312;DHT22;14019;56.964;24.016;2023-02-15T01:02:21;1.30;99.90
26312;DHT22;14019;56.964;24.016;2023-02-15T01:05:07;1.20;99.90
26312;DHT22;14019;56.964;24.016;2023-02-15T01:07:56;1.20;99.90
26312;DHT22;14019;56.964;24.016;2023-02-15T01:10:44;1.20;99.90
26312;DHT22;14019;56.964;24.016;2023-02-15T01:13:34;1.20;99.90
26312;DHT22;14019;56.964;24.016;2023-02-15T01:16:22;1.20;99.90
26312;DHT22;14019;56.964;24.016;2023-02-15T01:19:08;1.20;99.90
26312;DHT22;14019;56.964;24.016;2023-02-15T01:21:55;1.20;99.90
26312;DHT22;14019;56.964;24.016;2023-02-15T01:24:41;1.10;99.90
26312;DHT22;14019;56.964;24.016;2023-02-15T01:27:28;1.10;99.90
26312;DHT22;14019;56.964;24.016;2023-02-15T01:30:19;1.10;99.90
26312;DHT22;14019;56.964;24.016;2023-02-15T01:33:11;1.10;99.90
26312;DHT22;14019;56.964;24.016;2023-02-15T01:36:04;1.20;99.90
26312;DHT22;14019;56.964;24.016;2023-02-15T01:38:50;1.20;99.90
26312;DHT22;14019;56.964;24.016;2023-02-15T01:41:36;1.20;99.90
26312;DHT22;14019;56.964;24.016;2023-02-15T01:44:49;1.20;99.90
26312;DHT22;14019;56.964;24.016;2023-02-15T01:47:39;1.20;99.90
26312;DHT22;14019;56.964;24.016;2023-02-15T01:50:34;1.20;99.90
26312;DHT22;14019;56.964;24.016;2023-02-15T01:54:15;1.20;99.90
26312;DHT22;14019;56.964;24.016;2023-02-15T01:56:40;1.20;99.90
26312;DHT22;14019;56.964;24.016;2023-02-15T01:59:27;1.20;99.90
26312;DHT22;14019;56.964;24.016;2023-02-15T02:02:14;1.20;99.90
26312;DHT22;14019;56.964;24.016;2023-02-15T02:05:05;1.20;99.90
26312;DHT22;14019;56.964;24.016;2023-02-15T02:07:55;1.20;99.90
26312;DHT22;14019;56.964;24.016;2023-02-15T02:10:42;1.20;99.90
26312;DHT22;14019;56.964;24.016;2023-02-15T02:13:28;1.20;99.90
26312;DHT22;14019;56.964;24.016;2023-02-15T02:19:22;1.20;99.90
26312;DHT22;14019;56.964;24.016;2023-02-15T02:22:34;1.10;99.90
26312;DHT22;14019;56.964;24.016;2023-02-15T02:25:59;1.00;99.90
26312;DHT22;14019;56.964;24.016;2023-02-15T02:29:09;0.90;99.90
26312;DHT22;14019;56.964;24.016;2023-02-15T02:35:23;0.90;99.90
26312;DHT22;14019;56.964;24.016;2023-02-15T02:47:25;0.80;99.90
26312;DHT22;14019;56.964;24.016;2023-02-15T02:50:27;0.80;99.90
26312;DHT22;14019;56.964;24.016;2023-02-15T02:53:13;0.80;99.90
26312;DHT22;14019;56.964;24.016;2023-02-15T02:56:36;0.80;99.90
26312;DHT22;14019;56.964;24.016;2023-02-15T02:59:36;0.80;99.90
26312;DHT22;14019;56.964;24.016;2023-02-15T03:02:30;0.80;99.90
26312;DHT22;14019;56.964;24.016;2023-02-15T03:05:22;0.80;99.90
26312;DHT22;14019;56.964;24.016;2023-02-15T03:08:09;0.80;99.90
26312;DHT22;14019;56.964;24.016;2023-02-15T03:11:00;0.80;99.90
26312;DHT22;14019;56.964;24.016;2023-02-15T03:13:49;0.80;99.90
26312;DHT22;14019;56.964;24.016;2023-02-15T03:16:36;0.80;99.90
26312;DHT22;14019;56.964;24.016;2023-02-15T03:19:34;0.80;99.90
26312;DHT22;14019;56.964;24.016;2023-02-15T03:22:44;0.80;99.90
26312;DHT22;14019;56.964;24.016;2023-02-15T03:25:34;0.70;99.90
26312;DHT22;14019;56.964;24.016;2023-02-15T03:28:29;0.70;99.90
26312;DHT22;14019;56.964;24.016;2023-02-15T03:31:18;0.60;99.90
26312;DHT22;14019;56.964;24.016;2023-02-15T03:34:09;0.60;99.90
26312;DHT22;14019;56.964;24.016;2023-02-15T03:37:03;0.60;99.90
26312;DHT22;14019;56.964;24.016;2023-02-15T03:39:54;0.50;99.90
26312;DHT22;14019;56.964;24.016;2023-02-15T03:42:42;0.50;99.90
26312;DHT22;14019;56.964;24.016;2023-02-15T03:45:31;0.50;99.90
26312;DHT22;14019;56.964;24.016;2023-02-15T03:48:21;0.40;99.90
26312;DHT22;14019;56.964;24.016;2023-02-15T03:51:12;0.40;99.90
26312;DHT22;14019;56.964;24.016;2023-02-15T03:54:30;0.30;99.90
26312;DHT22;14019;56.964;24.016;2023-02-15T03:57:30;0.30;99.90
26312;DHT22;14019;56.964;24.016;2023-02-15T04:00:37;0.30;99.90
26312;DHT22;14019;56.964;24.016;2023-02-15T04:03:58;0.20;99.90
26312;DHT22;14019;56.964;24.016;2023-02-15T04:06:45;0.20;99.90
26312;DHT22;14019;56.964;24.016;2023-02-15T04:09:31;0.10;99.90
26312;DHT22;14019;56.964;24.016;2023-02-15T04:12:35;0.10;99.90
26312;DHT22;14019;56.964;24.016;2023-02-15T04:15:22;0.10;99.90
26312;DHT22;14019;56.964;24.016;2023-02-15T04:18:27;0.10;99.90
26312;DHT22;14019;56.964;24.016;2023-02-15T04:21:32;0.10;99.90
26312;DHT22;14019;56.964;24.016;2023-02-15T04:24:36;0.10;99.90
26312;DHT22;14019;56.964;24.016;2023-02-15T04:27:49;0.10;99.90
26312;DHT22;14019;56.964;24.016;2023-02-15T04:30:35;0.10;99.90
26312;DHT22;14019;56.964;24.016;2023-02-15T04:33:21;0.10;99.90
26312;DHT22;14019;56.964;24.016;2023-02-15T04:36:08;0.10;99.90
26312;DHT22;14019;56.964;24.016;2023-02-15T04:38:54;0.00;99.90
26312;DHT22;14019;56.964;24.016;2023-02-15T04:41:40;0.00;99.90
26312;DHT22;14019;56.964;24.016;2023-02-15T04:44:26;0.00;99.90
26312;DHT22;14019;56.964;24.016;2023-02-15T04:47:12;-0.10;99.90
26312;DHT22;14019;56.964;24.016;2023-02-15T04:49:59;-0.10;99.90
26312;DHT22;14019;56.964;24.016;2023-02-15T04:52:45;-0.10;99.90
26312;DHT22;14019;56.964;24.016;2023-02-15T04:55:30;-0.10;99.90
26312;DHT22;14019;56.964;24.016;2023-02-15T04:58:17;-0.20;99.90
26312;DHT22;14019;56.964;24.016;2023-02-15T05:01:03;-0.20;99.90
26312;DHT22;14019;56.964;24.016;2023-02-15T05:03:49;-0.30;99.90
26312;DHT22;14019;56.964;24.016;2023-02-15T05:06:35;-0.30;99.90
26312;DHT22;14019;56.964;24.016;2023-02-15T05:09:21;-0.30;99.90
26312;DHT22;14019;56.964;24.016;2023-02-15T05:12:07;-0.30;99.90
26312;DHT22;14019;56.964;24.016;2023-02-15T05:14:54;-0.30;99.90
26312;DHT22;14019;56.964;24.016;2023-02-15T05:17:40;-0.30;99.90
26312;DHT22;14019;56.964;24.016;2023-02-15T05:20:26;-0.30;99.90
26312;DHT22;14019;56.964;24.016;2023-02-15T05:23:13;-0.40;99.90
26312;DHT22;14019;56.964;24.016;2023-02-15T05:25:59;-0.40;99.90
26312;DHT22;14019;56.964;24.016;2023-02-15T05:29:04;-0.40;99.90
26312;DHT22;14019;56.964;24.016;2023-02-15T05:31:50;-0.40;99.90
26312;DHT22;14019;56.964;24.016;2023-02-15T05:34:37;-0.40;99.90
26312;DHT22;14019;56.964;24.016;2023-02-15T05:37:23;-0.40;99.90
26312;DHT22;14019;56.964;24.016;2023-02-15T05:40:09;-0.40;99.90
26312;DHT22;14019;56.964;24.016;2023-02-15T05:42:56;-0.40;99.90
26312;DHT22;14019;56.964;24.016;2023-02-15T05:45:47;-0.40;99.90
26312;DHT22;14019;56.964;24.016;2023-02-15T05:48:34;-0.40;99.90
26312;DHT22;14019;56.964;24.016;2023-02-15T05:51:20;-0.40;99.90
26312;DHT22;14019;56.964;24.016;2023-02-15T05:54:06;-0.30;99.90
26312;DHT22;14019;56.964;24.016;2023-02-15T05:56:52;-0.30;99.90
26312;DHT22;14019;56.964;24.016;2023-02-15T05:59:38;-0.30;99.90
26312;DHT22;14019;56.964;24.016;2023-02-15T06:02:24;-0.30;99.90
26312;DHT22;14019;56.964;24.016;2023-02-15T06:05:11;-0.20;99.90
26312;DHT22;14019;56.964;24.016;2023-02-15T06:07:57;-0.20;99.90
26312;DHT22;14019;56.964;24.016;2023-02-15T06:10:46;-0.20;99.90
26312;DHT22;14019;56.964;24.016;2023-02-15T06:13:32;-0.20;99.90
26312;DHT22;14019;56.964;24.016;2023-02-15T06:16:22;-0.20;99.90
26312;DHT22;14019;56.964;24.016;2023-02-15T06:19:08;-0.20;99.90
26312;DHT22;14019;56.964;24.016;2023-02-15T06:21:54;-0.20;99.90
26312;DHT22;14019;56.964;24.016;2023-02-15T06:24:40;-0.20;99.90
26312;DHT22;14019;56.964;24.016;2023-02-15T06:27:28;-0.10;99.90
26312;DHT22;14019;56.964;24.016;2023-02-15T06:30:14;-0.10;99.90
26312;DHT22;14019;56.964;24.016;2023-02-15T06:33:00;-0.10;99.90
26312;DHT22;14019;56.964;24.016;2023-02-15T06:35:46;0.00;99.90
26312;DHT22;14019;56.964;24.016;2023-02-15T06:38:33;0.10;99.90
26312;DHT22;14019;56.964;24.016;2023-02-15T06:41:19;0.10;99.90
26312;DHT22;14019;56.964;24.016;2023-02-15T06:44:05;0.20;99.90
26312;DHT22;14019;56.964;24.016;2023-02-15T06:46:51;0.20;99.90
26312;DHT22;14019;56.964;24.016;2023-02-15T06:49:37;0.20;99.90
26312;DHT22;14019;56.964;24.016;2023-02-15T06:52:24;0.20;99.90
26312;DHT22;14019;56.964;24.016;2023-02-15T06:55:10;0.30;99.90
26312;DHT22;14019;56.964;24.016;2023-02-15T06:57:56;0.30;99.90
26312;DHT22;14019;56.964;24.016;2023-02-15T07:00:42;0.30;99.90
26312;DHT22;14019;56.964;24.016;2023-02-15T07:03:29;0.30;99.90
26312;DHT22;14019;56.964;24.016;2023-02-15T07:06:14;0.30;99.90
26312;DHT22;14019;56.964;24.016;2023-02-15T07:09:00;0.30;99.90
26312;DHT22;14019;56.964;24.016;2023-02-15T07:11:46;0.20;99.90
26312;DHT22;14019;56.964;24.016;2023-02-15T07:14:51;0.20;99.90
26312;DHT22;14019;56.964;24.016;2023-02-15T07:17:37;0.30;99.90
26312;DHT22;14019;56.964;24.016;2023-02-15T07:20:24;0.30;99.90
26312;DHT22;14019;56.964;24.016;2023-02-15T07:23:13;0.30;99.90
26312;DHT22;14019;56.964;24.016;2023-02-15T07:26:00;0.20;99.90
26312;DHT22;14019;56.964;24.016;2023-02-15T07:28:46;0.20;99.90
26312;DHT22;14019;56.964;24.016;2023-02-15T07:31:33;0.20;99.90
26312;DHT22;14019;56.964;24.016;2023-02-15T07:34:18;0.30;99.90
26312;DHT22;14019;56.964;24.016;2023-02-15T07:37:05;0.30;99.90
26312;DHT22;14019;56.964;24.016;2023-02-15T07:39:50;0.30;99.90
26312;DHT22;14019;56.964;24.016;2023-02-15T07:42:37;0.30;99.90
26312;DHT22;14019;56.964;24.016;2023-02-15T07:45:23;0.30;99.90
26312;DHT22;14019;56.964;24.016;2023-02-15T07:48:09;0.30;99.90
26312;DHT22;14019;56.964;24.016;2023-02-15T07:50:59;0.40;99.90
26312;DHT22;14019;56.964;24.016;2023-02-15T07:53:45;0.40;99.90
26312;DHT22;14019;56.964;24.016;2023-02-15T07:56:33;0.40;99.90
26312;DHT22;14019;56.964;24.016;2023-02-15T07:59:21;0.40;99.90
26312;DHT22;14019;56.964;24.016;2023-02-15T08:02:10;0.40;99.90
26312;DHT22;14019;56.964;24.016;2023-02-15T08:04:57;0.50;99.90
26312;DHT22;14019;56.964;24.016;2023-02-15T08:07:43;0.60;99.90
26312;DHT22;14019;56.964;24.016;2023-02-15T08:10:29;0.60;99.90
26312;DHT22;14019;56.964;24.016;2023-02-15T08:13:33;0.60;99.90
26312;DHT22;14019;56.964;24.016;2023-02-15T08:16:40;0.70;99.90
26312;DHT22;14019;56.964;24.016;2023-02-15T08:19:29;0.60;99.90
26312;DHT22;14019;56.964;24.016;2023-02-15T08:22:15;0.60;99.90
26312;DHT22;14019;56.964;24.016;2023-02-15T08:25:02;0.50;99.90
26312;DHT22;14019;56.964;24.016;2023-02-15T08:27:49;0.50;99.90
26312;DHT22;14019;56.964;24.016;2023-02-15T08:30:35;0.60;99.90
26312;DHT22;14019;56.964;24.016;2023-02-15T08:33:21;0.50;99.90
26312;DHT22;14019;56.964;24.016;2023-02-15T08:36:11;0.50;99.90
26312;DHT22;14019;56.964;24.016;2023-02-15T08:38:59;0.50;99.90
26312;DHT22;14019;56.964;24.016;2023-02-15T08:41:46;0.50;99.90
26312;DHT22;14019;56.964;24.016;2023-02-15T08:44:33;0.60;99.90
26312;DHT22;14019;56.964;24.016;2023-02-15T08:47:19;0.60;99.90
26312;DHT22;14019;56.964;24.016;2023-02-15T08:50:05;0.60;99.90
26312;DHT22;14019;56.964;24.016;2023-02-15T08:52:51;0.60;99.90
26312;DHT22;14019;56.964;24.016;2023-02-15T08:55:38;0.80;99.90
26312;DHT22;14019;56.964;24.016;2023-02-15T08:58:25;0.60;99.90
26312;DHT22;14019;56.964;24.016;2023-02-15T09:01:14;0.70;99.90
26312;DHT22;14019;56.964;24.016;2023-02-15T09:04:05;0.70;99.90
26312;DHT22;14019;56.964;24.016;2023-02-15T09:06:54;0.60;99.90
26312;DHT22;14019;56.964;24.016;2023-02-15T09:09:40;0.60;99.90
26312;DHT22;14019;56.964;24.016;2023-02-15T09:12:26;0.60;99.90
26312;DHT22;14019;56.964;24.016;2023-02-15T09:15:12;0.70;99.90
26312;DHT22;14019;56.964;24.016;2023-02-15T09:17:58;0.70;99.90
26312;DHT22;14019;56.964;24.016;2023-02-15T09:20:51;0.80;99.90
26312;DHT22;14019;56.964;24.016;2023-02-15T09:23:37;0.80;99.90
26312;DHT22;14019;56.964;24.016;2023-02-15T09:26:24;0.80;99.90
26312;DHT22;14019;56.964;24.016;2023-02-15T09:29:11;0.80;99.90
26312;DHT22;14019;56.964;24.016;2023-02-15T09:31:57;0.80;99.90
26312;DHT22;14019;56.964;24.016;2023-02-15T09:34:43;0.80;99.90
26312;DHT22;14019;56.964;24.016;2023-02-15T09:37:30;0.80;99.90
26312;DHT22;14019;56.964;24.016;2023-02-15T09:40:18;0.70;99.90
26312;DHT22;14019;56.964;24.016;2023-02-15T09:43:14;0.70;99.90
26312;DHT22;14019;56.964;24.016;2023-02-15T09:46:27;0.70;99.90
26312;DHT22;14019;56.964;24.016;2023-02-15T09:58:48;0.80;99.90
26312;DHT22;14019;56.964;24.016;2023-02-15T10:04:53;0.80;99.90
26312;DHT22;14019;56.964;24.016;2023-02-15T10:17:29;0.70;99.90
26312;DHT22;14019;56.964;24.016;2023-02-15T10:26:49;0.70;99.90
26312;DHT22;14019;56.964;24.016;2023-02-15T10:29:38;0.80;99.90
26312;DHT22;14019;56.964;24.016;2023-02-15T10:32:28;0.80;99.90
26312;DHT22;14019;56.964;24.016;2023-02-15T10:35:22;0.90;99.90
26312;DHT22;14019;56.964;24.016;2023-02-15T10:41:09;0.90;99.90
26312;DHT22;14019;56.964;24.016;2023-02-15T10:50:13;1.00;99.90
26312;DHT22;14019;56.964;24.016;2023-02-15T10:59:50;1.00;99.90
26312;DHT22;14019;56.964;24.016;2023-02-15T11:06:05;1.00;99.90
26312;DHT22;14019;56.964;24.016;2023-02-15T11:09:00;0.90;99.90
26312;DHT22;14019;56.964;24.016;2023-02-15T11:11:52;0.90;99.90
26312;DHT22;14019;56.964;24.016;2023-02-15T11:15:11;0.90;99.90
26312;DHT22;14019;56.964;24.016;2023-02-15T11:21:29;0.90;99.90
26312;DHT22;14019;56.964;24.016;2023-02-15T11:24:19;0.90;99.90
26312;DHT22;14019;56.964;24.016;2023-02-15T11:30:04;1.00;99.90
26312;DHT22;14019;56.964;24.016;2023-02-15T11:32:58;1.00;99.90
26312;DHT22;14019;56.964;24.016;2023-02-15T11:36:02;1.10;99.90
26312;DHT22;14019;56.964;24.016;2023-02-15T11:38:56;1.10;99.90
26312;DHT22;14019;56.964;24.016;2023-02-15T11:41:48;1.20;99.90
26312;DHT22;14019;56.964;24.016;2023-02-15T11:44:42;1.20;99.90
26312;DHT22;14019;56.964;24.016;2023-02-15T11:47:29;1.30;99.90
26312;DHT22;14019;56.964;24.016;2023-02-15T11:50:17;1.30;99.90
26312;DHT22;14019;56.964;24.016;2023-02-15T11:53:20;1.30;99.90
26312;DHT22;14019;56.964;24.016;2023-02-15T11:56:24;1.30;99.90
26312;DHT22;14019;56.964;24.016;2023-02-15T11:59:34;1.40;99.90
26312;DHT22;14019;56.964;24.016;2023-02-15T12:02:22;1.40;99.90
26312;DHT22;14019;56.964;24.016;2023-02-15T12:05:17;1.40;99.90
26312;DHT22;14019;56.964;24.016;2023-02-15T12:08:16;1.50;99.90
26312;DHT22;14019;56.964;24.016;2023-02-15T12:11:12;1.50;99.90
26312;DHT22;14019;56.964;24.016;2023-02-15T12:14:06;1.50;99.90
26312;DHT22;14019;56.964;24.016;2023-02-15T12:16:54;1.50;99.90
26312;DHT22;14019;56.964;24.016;2023-02-15T12:19:42;1.50;99.90
26312;DHT22;14019;56.964;24.016;2023-02-15T12:22:31;1.60;99.90
26312;DHT22;14019;56.964;24.016;2023-02-15T12:25:25;1.60;99.90
26312;DHT22;14019;56.964;24.016;2023-02-15T12:28:31;1.70;99.90
26312;DHT22;14019;56.964;24.016;2023-02-15T12:34:35;1.70;99.90
26312;DHT22;14019;56.964;24.016;2023-02-15T12:37:23;1.70;99.90
26312;DHT22;14019;56.964;24.016;2023-02-15T12:40:30;1.70;99.90
26312;DHT22;14019;56.964;24.016;2023-02-15T12:43:35;1.70;99.90
26312;DHT22;14019;56.964;24.016;2023-02-15T12:46:26;1.80;99.90
26312;DHT22;14019;56.964;24.016;2023-02-15T12:49:19;1.80;99.90
26312;DHT22;14019;56.964;24.016;2023-02-15T12:52:24;1.70;99.90
26312;DHT22;14019;56.964;24.016;2023-02-15T12:55:27;1.80;99.90
26312;DHT22;14019;56.964;24.016;2023-02-15T12:58:21;1.80;99.90
26312;DHT22;14019;56.964;24.016;2023-02-15T13:04:06;1.80;99.90
26312;DHT22;14019;56.964;24.016;2023-02-15T13:07:01;1.80;99.90
26312;DHT22;14019;56.964;24.016;2023-02-15T13:09:48;1.80;99.90
26312;DHT22;14019;56.964;24.016;2023-02-15T13:12:35;1.80;99.90
26312;DHT22;14019;56.964;24.016;2023-02-15T13:15:40;1.90;99.90
26312;DHT22;14019;56.964;24.016;2023-02-15T13:18:47;1.80;99.90
26312;DHT22;14019;56.964;24.016;2023-02-15T13:21:39;1.90;99.90
26312;DHT22;14019;56.964;24.016;2023-02-15T13:24:53;1.90;99.90
26312;DHT22;14019;56.964;24.016;2023-02-15T13:27:42;1.90;99.90
26312;DHT22;14019;56.964;24.016;2023-02-15T13:30:38;2.00;99.90
26312;DHT22;14019;56.964;24.016;2023-02-15T13:33:31;2.00;99.90
26312;DHT22;14019;56.964;24.016;2023-02-15T13:42:37;2.00;99.90
26312;DHT22;14019;56.964;24.016;2023-02-15T13:57:52;2.00;99.90
26312;DHT22;14019;56.964;24.016;2023-02-15T14:01:14;2.00;99.90
26312;DHT22;14019;56.964;24.016;2023-02-15T14:19:59;2.00;99.90
26312;DHT22;14019;56.964;24.016;2023-02-15T14:23:07;2.00;99.90
26312;DHT22;14019;56.964;24.016;2023-02-15T14:26:35;2.00;99.90
26312;DHT22;14019;56.964;24.016;2023-02-15T14:30:10;2.00;99.90
26312;DHT22;14019;56.964;24.016;2023-02-15T14:32:42;2.00;99.90
26312;DHT22;14019;56.964;24.016;2023-02-15T14:35:30;2.00;99.90
26312;DHT22;14019;56.964;24.016;2023-02-15T14:38:47;2.00;99.90
26312;DHT22;14019;56.964;24.016;2023-02-15T14:41:50;2.00;99.90
26312;DHT22;14019;56.964;24.016;2023-02-15T14:44:48;2.00;99.90
26312;DHT22;14019;56.964;24.016;2023-02-15T14:47:54;2.00;99.90
26312;DHT22;14019;56.964;24.016;2023-02-15T14:50:44;1.90;99.90
26312;DHT22;14019;56.964;24.016;2023-02-15T14:53:34;1.90;99.90
26312;DHT22;14019;56.964;24.016;2023-02-15T14:56:23;1.90;99.90
26312;DHT22;14019;56.964;24.016;2023-02-15T14:59:14;1.90;99.90
26312;DHT22;14019;56.964;24.016;2023-02-15T15:05:18;1.90;99.90
26312;DHT22;14019;56.964;24.016;2023-02-15T15:08:06;1.80;99.90
26312;DHT22;14019;56.964;24.016;2023-02-15T15:10:51;1.80;99.90
26312;DHT22;14019;56.964;24.016;2023-02-15T15:13:39;1.80;99.90
26312;DHT22;14019;56.964;24.016;2023-02-15T15:22:36;1.80;99.90
26312;DHT22;14019;56.964;24.016;2023-02-15T15:25:42;1.80;99.90
26312;DHT22;14019;56.964;24.016;2023-02-15T15:31:47;1.80;99.90
26312;DHT22;14019;56.964;24.016;2023-02-15T15:34:50;1.80;99.90
26312;DHT22;14019;56.964;24.016;2023-02-15T15:50:13;1.70;99.90
26312;DHT22;14019;56.964;24.016;2023-02-15T15:53:01;1.70;99.90
26312;DHT22;14019;56.964;24.016;2023-02-15T15:55:50;1.70;99.90
26312;DHT22;14019;56.964;24.016;2023-02-15T15:58:43;1.70;99.90
26312;DHT22;14019;56.964;24.016;2023-02-15T16:01:38;1.70;99.90
26312;DHT22;14019;56.964;24.016;2023-02-15T16:04:31;1.80;99.90
26312;DHT22;14019;56.964;24.016;2023-02-15T16:10:19;1.70;99.90
26312;DHT22;14019;56.964;24.016;2023-02-15T16:13:06;1.70;99.90
26312;DHT22;14019;56.964;24.016;2023-02-15T16:15:54;1.70;99.90
26312;DHT22;14019;56.964;24.016;2023-02-15T16:18:41;1.70;99.90
26312;DHT22;14019;56.964;24.016;2023-02-15T16:21:33;1.70;99.90
26312;DHT22;14019;56.964;24.016;2023-02-15T16:30:29;1.70;99.90
26312;DHT22;14019;56.964;24.016;2023-02-15T16:33:16;1.70;99.90
26312;DHT22;14019;56.964;24.016;2023-02-15T16:36:02;1.70;99.90
26312;DHT22;14019;56.964;24.016;2023-02-15T16:41:42;1.60;99.90
26312;DHT22;14019;56.964;24.016;2023-02-15T16:44:31;1.60;99.90
26312;DHT22;14019;56.964;24.016;2023-02-15T16:47:25;1.60;99.90
26312;DHT22;14019;56.964;24.016;2023-02-15T16:50:20;1.60;99.90
26312;DHT22;14019;56.964;24.016;2023-02-15T16:53:16;1.70;99.90
26312;DHT22;14019;56.964;24.016;2023-02-15T16:56:05;1.70;99.90
26312;DHT22;14019;56.964;24.016;2023-02-15T16:58:52;1.70;99.90
26312;DHT22;14019;56.964;24.016;2023-02-15T17:01:43;1.60;99.90
26312;DHT22;14019;56.964;24.016;2023-02-15T17:04:30;1.70;99.90
26312;DHT22;14019;56.964;24.016;2023-02-15T17:07:19;1.70;99.90
26312;DHT22;14019;56.964;24.016;2023-02-15T17:10:26;1.70;99.90
26312;DHT22;14019;56.964;24.016;2023-02-15T17:13:16;1.70;99.90
26312;DHT22;14019;56.964;24.016;2023-02-15T17:18:50;1.70;99.90
26312;DHT22;14019;56.964;24.016;2023-02-15T17:21:50;1.70;99.90
26312;DHT22;14019;56.964;24.016;2023-02-15T17:24:39;1.70;99.90
26312;DHT22;14019;56.964;24.016;2023-02-15T17:27:28;1.70;99.90
26312;DHT22;14019;56.964;24.016;2023-02-15T17:30:26;1.70;99.90
26312;DHT22;14019;56.964;24.016;2023-02-15T17:33:24;1.70;99.90
26312;DHT22;14019;56.964;24.016;2023-02-15T17:36:19;1.60;99.90
26312;DHT22;14019;56.964;24.016;2023-02-15T17:39:20;1.60;99.90
26312;DHT22;14019;56.964;24.016;2023-02-15T17:42:08;1.60;99.90
26312;DHT22;14019;56.964;24.016;2023-02-15T17:44:54;1.60;99.90
26312;DHT22;14019;56.964;24.016;2023-02-15T17:47:41;1.60;99.90
26312;DHT22;14019;56.964;24.016;2023-02-15T17:50:27;1.60;99.90
26312;DHT22;14019;56.964;24.016;2023-02-15T17:53:17;1.70;99.90
26312;DHT22;14019;56.964;24.016;2023-02-15T17:56:05;1.70;99.90
26312;DHT22;14019;56.964;24.016;2023-02-15T17:58:55;1.70;99.90
26312;DHT22;14019;56.964;24.016;2023-02-15T18:01:46;1.70;99.90
26312;DHT22;14019;56.964;24.016;2023-02-15T18:04:51;1.70;99.90
26312;DHT22;14019;56.964;24.016;2023-02-15T18:07:56;1.70;99.90
26312;DHT22;14019;56.964;24.016;2023-02-15T18:11:01;1.70;99.90
26312;DHT22;14019;56.964;24.016;2023-02-15T18:14:09;1.70;99.90
26312;DHT22;14019;56.964;24.016;2023-02-15T18:16:56;1.70;99.90
26312;DHT22;14019;56.964;24.016;2023-02-15T18:19:43;1.70;99.90
26312;DHT22;14019;56.964;24.016;2023-02-15T18:22:30;1.70;99.90
26312;DHT22;14019;56.964;24.016;2023-02-15T18:25:19;1.70;99.90
26312;DHT22;14019;56.964;24.016;2023-02-15T18:28:05;1.80;99.90
26312;DHT22;14019;56.964;24.016;2023-02-15T18:30:51;1.70;99.90
26312;DHT22;14019;56.964;24.016;2023-02-15T18:33:44;1.70;99.90
26312;DHT22;14019;56.964;24.016;2023-02-15T18:36:39;1.70;99.90
26312;DHT22;14019;56.964;24.016;2023-02-15T18:39:42;1.70;99.90
26312;DHT22;14019;56.964;24.016;2023-02-15T18:42:33;1.70;99.90
26312;DHT22;14019;56.964;24.016;2023-02-15T18:45:27;1.80;99.90
26312;DHT22;14019;56.964;24.016;2023-02-15T18:48:16;1.80;99.90
26312;DHT22;14019;56.964;24.016;2023-02-15T18:51:04;1.70;99.90
26312;DHT22;14019;56.964;24.016;2023-02-15T18:53:53;1.70;99.90
26312;DHT22;14019;56.964;24.016;2023-02-15T18:56:39;1.70;99.90
26312;DHT22;14019;56.964;24.016;2023-02-15T18:59:27;1.70;99.90
26312;DHT22;14019;56.964;24.016;2023-02-15T19:02:16;1.70;99.90
26312;DHT22;14019;56.964;24.016;2023-02-15T19:05:04;1.70;99.90
26312;DHT22;14019;56.964;24.016;2023-02-15T19:07:50;1.70;99.90
26312;DHT22;14019;56.964;24.016;2023-02-15T19:10:36;1.70;99.90
26312;DHT22;14019;56.964;24.016;2023-02-15T19:13:23;1.70;99.90
26312;DHT22;14019;56.964;24.016;2023-02-15T19:19:04;1.70;99.90
26312;DHT22;14019;56.964;24.016;2023-02-15T19:21:51;1.70;99.90
26312;DHT22;14019;56.964;24.016;2023-02-15T19:24:39;1.70;99.90
26312;DHT22;14019;56.964;24.016;2023-02-15T19:27:31;1.70;99.90
26312;DHT22;14019;56.964;24.016;2023-02-15T19:30:31;1.80;99.90
26312;DHT22;14019;56.964;24.016;2023-02-15T19:33:19;1.70;99.90
26312;DHT22;14019;56.964;24.016;2023-02-15T19:36:17;1.80;99.90
26312;DHT22;14019;56.964;24.016;2023-02-15T19:39:30;1.70;99.90
26312;DHT22;14019;56.964;24.016;2023-02-15T19:42:23;1.70;99.90
26312;DHT22;14019;56.964;24.016;2023-02-15T19:45:24;1.70;99.90
26312;DHT22;14019;56.964;24.016;2023-02-15T19:48:13;1.70;99.90
26312;DHT22;14019;56.964;24.016;2023-02-15T19:51:03;1.70;99.90
26312;DHT22;14019;56.964;24.016;2023-02-15T19:53:49;1.70;99.90
26312;DHT22;14019;56.964;24.016;2023-02-15T19:56:36;1.70;99.90
26312;DHT22;14019;56.964;24.016;2023-02-15T19:59:24;1.70;99.90
26312;DHT22;14019;56.964;24.016;2023-02-15T20:02:13;1.70;99.90
26312;DHT22;14019;56.964;24.016;2023-02-15T20:04:59;1.70;99.90
26312;DHT22;14019;56.964;24.016;2023-02-15T20:07:48;1.70;99.90
26312;DHT22;14019;56.964;24.016;2023-02-15T20:10:34;1.70;99.90
26312;DHT22;14019;56.964;24.016;2023-02-15T20:13:21;1.70;99.90
26312;DHT22;14019;56.964;24.016;2023-02-15T20:16:07;1.70;99.90
26312;DHT22;14019;56.964;24.016;2023-02-15T20:18:54;1.70;99.90
26312;DHT22;14019;56.964;24.016;2023-02-15T20:21:42;1.80;99.90
26312;DHT22;14019;56.964;24.016;2023-02-15T20:24:28;1.70;99.90
26312;DHT22;14019;56.964;24.016;2023-02-15T20:27:16;1.80;99.90
26312;DHT22;14019;56.964;24.016;2023-02-15T20:30:12;1.80;99.90
26312;DHT22;14019;56.964;24.016;2023-02-15T20:32:58;1.80;99.90
26312;DHT22;14019;56.964;24.016;2023-02-15T20:35:45;1.80;99.90